Time;durP1;ratioP1;P1;durP2;ratioP2;P2;SDS_P1;SDS_P2;PMS_P1;PMS_P2;Temp;Humidity;BMP_temperature;BMP_pressure;BME280_temperature;BME280_humidity;BME280_pressure;Samples;Min_cycle;Max_cycle;Signal;HPM_P1;HPM_P2
2022/10/19 00:02:25;;;;;;;6.28;5.57;;;17.20;99.90;;;;;;5113848;28;20020;-79
2022/10/19 00:04:50;;;;;;;7.28;6.15;;;17.00;99.90;;;;;;5095047;28;20032;-79
2022/10/19 00:07:16;;;;;;;6.93;5.88;;;16.90;99.90;;;;;;5095021;28;20023;-79
2022/10/19 00:09:43;;;;;;;9.15;6.80;;;16.80;99.90;;;;;;5094477;28;20431;-81
2022/10/19 00:12:09;;;;;;;8.10;6.15;;;16.70;99.90;;;;;;5095126;28;20134;-81
2022/10/19 00:14:34;;;;;;;8.32;6.30;;;16.50;99.90;;;;;;5094783;28;20071;-81
2022/10/19 00:17:00;;;;;;;8.93;7.20;;;16.50;99.90;;;;;;5094644;28;20055;-81
2022/10/19 00:19:27;;;;;;;9.60;6.50;;;16.60;99.90;;;;;;5094859;28;20017;-81
2022/10/19 00:21:53;;;;;;;7.32;6.32;;;16.60;99.90;;;;;;5094621;28;20044;-81
2022/10/19 00:24:19;;;;;;;8.18;6.18;;;16.50;99.90;;;;;;5094741;28;20476;-81
2022/10/19 00:26:45;;;;;;;7.32;6.20;;;16.50;99.90;;;;;;5094650;28;20020;-81
2022/10/19 00:29:14;;;;;;;10.48;6.97;;;16.50;99.90;;;;;;5094449;28;20032;-81
2022/10/19 00:31:40;;;;;;;9.38;6.43;;;16.40;99.90;;;;;;5103576;28;20548;-81
2022/10/19 00:34:06;;;;;;;8.68;6.50;;;16.30;99.90;;;;;;5114760;28;20035;-81
2022/10/19 00:36:34;;;;;;;6.85;6.07;;;16.40;99.90;;;;;;5114921;28;20115;-81
2022/10/19 00:39:01;;;;;;;6.97;6.25;;;16.40;99.90;;;;;;5114440;28;20027;-81
2022/10/19 00:41:30;;;;;;;8.70;6.20;;;16.20;99.90;;;;;;5096749;28;20177;-81
2022/10/19 00:44:03;;;;;;;7.57;6.78;;;16.20;99.90;;;;;;5114737;28;20102;-81
2022/10/19 00:46:31;;;;;;;11.95;6.30;;;16.00;99.90;;;;;;5114486;28;20099;-81
2022/10/19 00:49:09;;;;;;;7.10;6.40;;;16.20;99.90;;;;;;5114562;28;20019;-81
2022/10/19 00:51:38;;;;;;;8.02;6.93;;;16.50;99.90;;;;;;5115169;28;20076;-81
2022/10/19 00:54:05;;;;;;;6.75;6.13;;;16.70;99.90;;;;;;5114150;28;20081;-81
2022/10/19 00:56:32;;;;;;;8.73;6.22;;;16.90;99.90;;;;;;5114502;28;20111;-81
2022/10/19 00:58:57;;;;;;;9.70;6.40;;;17.00;99.90;;;;;;5114406;28;20536;-81
2022/10/19 01:01:26;;;;;;;9.30;5.90;;;17.00;99.90;;;;;;5114305;28;20106;-81
2022/10/19 01:03:51;;;;;;;8.98;6.50;;;17.20;99.90;;;;;;5101694;28;20024;-81
2022/10/19 01:06:18;;;;;;;11.15;6.50;;;16.90;99.90;;;;;;5094284;28;20030;-81
2022/10/19 01:08:44;;;;;;;7.20;5.95;;;16.80;99.90;;;;;;5093291;28;20480;-81
2022/10/19 01:11:10;;;;;;;7.93;6.25;;;16.40;99.90;;;;;;5093625;28;20055;-81
2022/10/19 01:13:42;;;;;;;7.20;6.40;;;16.30;99.90;;;;;;5093556;28;20036;-81
2022/10/19 01:16:32;;;;;;;6.28;5.68;;;16.10;99.90;;;;;;5093592;28;20035;-81
2022/10/19 01:19:24;;;;;;;6.10;5.50;;;15.90;99.90;;;;;;5093816;28;20024;-81
2022/10/19 01:22:10;;;;;;;8.73;6.30;;;15.80;99.90;;;;;;5093413;28;20028;-81
2022/10/19 01:24:59;;;;;;;9.18;6.25;;;15.80;99.90;;;;;;5093495;28;20039;-81
2022/10/19 01:27:42;;;;;;;12.38;7.03;;;15.90;99.90;;;;;;5093418;28;20035;-81
2022/10/19 01:30:33;;;;;;;9.23;6.47;;;15.80;99.90;;;;;;5093395;28;20480;-81
2022/10/19 01:33:28;;;;;;;7.82;6.53;;;15.70;99.90;;;;;;5093182;28;20028;-81
2022/10/19 01:36:12;;;;;;;10.02;6.82;;;15.80;99.90;;;;;;5093320;28;20361;-81
2022/10/19 01:39:01;;;;;;;11.45;6.90;;;15.70;99.90;;;;;;5092866;28;20024;-81
2022/10/19 01:41:34;;;;;;;9.43;6.90;;;15.70;99.90;;;;;;5093238;28;20484;-81
2022/10/19 01:44:13;;;;;;;8.00;6.85;;;15.70;99.90;;;;;;5092989;28;20107;-81
2022/10/19 01:46:42;;;;;;;9.45;6.88;;;15.70;99.90;;;;;;5093109;28;20020;-81
2022/10/19 01:49:17;;;;;;;8.15;7.10;;;15.70;99.90;;;;;;5093356;28;20024;-81
2022/10/19 01:51:52;;;;;;;8.48;7.07;;;15.70;99.90;;;;;;5092680;28;20031;-81
2022/10/19 01:54:21;;;;;;;8.38;6.60;;;15.70;99.90;;;;;;5092868;28;20032;-81
2022/10/19 01:56:48;;;;;;;11.88;6.82;;;15.60;99.90;;;;;;5092812;28;20058;-81
2022/10/19 01:59:16;;;;;;;9.68;7.18;;;15.70;99.90;;;;;;5092728;28;20484;-81
2022/10/19 02:01:45;;;;;;;13.45;7.63;;;15.60;99.90;;;;;;5093193;28;20058;-81
2022/10/19 02:04:17;;;;;;;7.97;7.07;;;15.60;99.90;;;;;;5092460;28;20508;-81
2022/10/19 02:06:43;;;;;;;9.45;7.20;;;15.40;99.90;;;;;;5092553;28;20016;-81
2022/10/19 02:09:16;;;;;;;12.68;7.85;;;15.40;99.90;;;;;;5092498;28;20020;-81
2022/10/19 02:11:48;;;;;;;7.97;7.18;;;15.40;99.90;;;;;;5092504;28;20152;-81
2022/10/19 02:14:16;;;;;;;10.48;7.63;;;15.40;99.90;;;;;;5093058;28;20036;-81
2022/10/19 02:16:51;;;;;;;8.48;7.10;;;15.40;99.90;;;;;;5092589;28;20025;-81
2022/10/19 02:19:18;;;;;;;10.75;7.63;;;15.40;99.90;;;;;;5092473;28;20016;-80
2022/10/19 02:21:44;;;;;;;11.10;7.85;;;15.50;99.90;;;;;;5092057;28;20026;-81
2022/10/19 02:24:10;;;;;;;12.20;7.57;;;15.70;99.90;;;;;;5091854;28;20043;-81
2022/10/19 02:26:36;;;;;;;11.13;7.63;;;15.70;99.90;;;;;;5092427;28;20064;-81
2022/10/19 02:29:02;;;;;;;10.07;7.07;;;15.80;99.90;;;;;;5092295;28;20046;-81
2022/10/19 02:31:27;;;;;;;13.27;7.93;;;15.70;99.90;;;;;;5100462;28;20533;-81
2022/10/19 02:33:53;;;;;;;10.63;7.80;;;15.70;99.90;;;;;;5112392;28;20450;-81
2022/10/19 02:36:19;;;;;;;9.70;7.63;;;15.70;99.90;;;;;;5112253;28;20076;-81
2022/10/19 02:38:45;;;;;;;10.88;7.35;;;15.70;99.90;;;;;;5112614;28;20031;-81
2022/10/19 02:41:20;;;;;;;11.63;7.53;;;15.60;99.90;;;;;;5112595;28;20030;-81
2022/10/19 02:43:55;;;;;;;15.02;8.13;;;15.40;99.90;;;;;;5112846;28;20036;-81
2022/10/19 02:47:02;;;;;;;9.40;7.95;;;15.40;99.90;;;;;;5112428;28;20035;-81
2022/10/19 02:49:29;;;;;;;10.75;7.82;;;15.30;99.90;;;;;;5010128;28;20092;-81
2022/10/19 02:51:57;;;;;;;8.43;7.55;;;15.40;99.90;;;;;;5009848;28;20034;-81
2022/10/19 02:54:23;;;;;;;11.35;7.97;;;15.40;99.90;;;;;;4993950;28;20038;-81
2022/10/19 02:56:48;;;;;;;10.07;7.90;;;15.50;99.90;;;;;;5010008;28;20113;-81
2022/10/19 02:59:14;;;;;;;10.85;8.02;;;15.60;99.90;;;;;;5009984;28;20037;-81
2022/10/19 03:01:39;;;;;;;10.27;7.88;;;15.60;99.90;;;;;;5010213;28;20038;-81
2022/10/19 03:04:05;;;;;;;12.60;7.80;;;15.70;99.90;;;;;;4995765;28;20035;-81
2022/10/19 03:06:31;;;;;;;11.88;7.80;;;15.70;99.90;;;;;;4990356;28;20145;-81
2022/10/19 03:08:56;;;;;;;10.77;7.95;;;15.80;99.90;;;;;;4990400;28;20026;-80
2022/10/19 03:11:22;;;;;;;10.60;7.82;;;15.80;99.90;;;;;;4990551;28;20053;-81
2022/10/19 03:13:47;;;;;;;10.40;7.90;;;15.80;99.90;;;;;;4990343;28;20125;-81
2022/10/19 03:16:13;;;;;;;11.95;8.20;;;15.80;99.90;;;;;;4990441;28;20038;-80
2022/10/19 03:18:39;;;;;;;11.13;7.60;;;15.80;99.90;;;;;;4990334;28;20399;-81
2022/10/19 03:21:07;;;;;;;9.77;8.07;;;15.80;99.90;;;;;;4990235;28;20030;-80
2022/10/19 03:23:34;;;;;;;9.30;7.90;;;15.70;99.90;;;;;;4990366;28;20031;-81
2022/10/19 03:25:59;;;;;;;8.95;7.82;;;15.80;99.90;;;;;;5081456;28;20024;-81
2022/10/19 03:28:25;;;;;;;10.00;7.68;;;15.90;99.90;;;;;;5091646;28;20020;-81
2022/10/19 03:30:50;;;;;;;10.30;7.60;;;15.90;99.90;;;;;;5094312;28;20123;-80
2022/10/19 03:33:16;;;;;;;10.43;7.93;;;15.90;99.90;;;;;;5111617;28;20035;-81
2022/10/19 03:35:42;;;;;;;10.57;7.45;;;15.70;99.90;;;;;;5113184;28;20072;-81
2022/10/19 03:38:07;;;;;;;9.05;7.53;;;15.70;99.90;;;;;;5115924;28;20019;-81
2022/10/19 03:40:33;;;;;;;9.68;7.53;;;15.70;99.90;;;;;;5115819;28;20024;-81
2022/10/19 03:42:58;;;;;;;9.73;7.43;;;15.50;99.90;;;;;;5116272;28;20019;-81
2022/10/19 03:45:24;;;;;;;8.93;7.20;;;15.20;99.90;;;;;;5115801;28;20446;-81
2022/10/19 03:47:50;;;;;;;13.57;7.47;;;15.10;99.90;;;;;;5115362;28;20106;-81
2022/10/19 03:50:17;;;;;;;13.75;7.78;;;15.00;99.90;;;;;;5115757;28;20035;-80
2022/10/19 03:52:43;;;;;;;12.05;8.23;;;14.80;99.90;;;;;;5115948;28;20015;-81
2022/10/19 03:55:09;;;;;;;9.07;7.60;;;14.80;99.90;;;;;;5115545;28;20060;-81
2022/10/19 03:57:36;;;;;;;9.43;7.20;;;14.80;99.90;;;;;;5115451;28;20016;-81
2022/10/19 04:00:03;;;;;;;8.93;7.35;;;15.10;99.90;;;;;;5115603;28;20023;-81
2022/10/19 04:02:28;;;;;;;12.23;8.07;;;14.70;99.90;;;;;;5114136;28;20421;-81
2022/10/19 04:04:54;;;;;;;9.43;7.85;;;14.70;99.90;;;;;;5095164;28;20024;-81
2022/10/19 04:07:20;;;;;;;10.00;7.93;;;14.80;99.90;;;;;;5077344;28;20129;-81
2022/10/19 04:09:45;;;;;;;10.40;7.95;;;14.90;99.90;;;;;;5094617;28;20024;-81
2022/10/19 04:12:11;;;;;;;10.32;7.63;;;14.90;99.90;;;;;;5094730;28;20044;-81
2022/10/19 04:14:37;;;;;;;14.27;8.57;;;15.00;99.90;;;;;;5094988;28;21004;-81
2022/10/19 04:17:03;;;;;;;10.82;8.07;;;15.10;99.90;;;;;;5094358;28;20473;-81
2022/10/19 04:19:29;;;;;;;8.45;7.20;;;15.20;99.90;;;;;;5094895;28;20028;-81
2022/10/19 04:21:55;;;;;;;9.85;8.02;;;15.10;99.90;;;;;;5094972;28;20060;-80
2022/10/19 04:24:21;;;;;;;11.93;7.80;;;15.30;99.90;;;;;;5094659;28;20055;-81
2022/10/19 04:26:52;;;;;;;7.60;6.88;;;15.30;99.90;;;;;;5094744;28;20036;-81
2022/10/19 04:29:19;;;;;;;8.43;7.60;;;15.30;99.90;;;;;;5094568;28;20027;-80
2022/10/19 04:31:47;;;;;;;13.88;8.20;;;15.20;99.90;;;;;;5104274;28;20548;-80
2022/10/19 04:34:13;;;;;;;11.05;7.85;;;15.00;99.90;;;;;;5114725;28;20098;-81
2022/10/19 04:36:38;;;;;;;13.25;8.27;;;15.40;99.90;;;;;;5114899;28;20030;-81
2022/10/19 04:39:05;;;;;;;9.85;8.30;;;15.00;99.90;;;;;;5096776;28;20468;-81
2022/10/19 04:41:32;;;;;;;11.93;8.30;;;15.00;99.90;;;;;;5114787;28;20020;-81
2022/10/19 04:43:59;;;;;;;11.68;7.80;;;14.90;99.90;;;;;;5114670;28;20034;-80
2022/10/19 04:46:26;;;;;;;10.85;8.48;;;15.00;99.90;;;;;;5114033;28;20479;-80
2022/10/19 04:48:52;;;;;;;14.32;8.40;;;15.00;99.90;;;;;;5114021;28;20077;-81
2022/10/19 04:51:18;;;;;;;10.63;7.63;;;15.10;99.90;;;;;;5114673;28;20020;-80
2022/10/19 04:53:44;;;;;;;10.88;8.32;;;15.10;99.90;;;;;;5114490;28;20035;-80
2022/10/19 04:56:14;;;;;;;11.75;7.95;;;15.20;99.90;;;;;;5114566;28;20065;-81
2022/10/19 04:58:40;;;;;;;9.38;7.72;;;15.20;99.90;;;;;;5114510;28;20059;-81
2022/10/19 05:01:27;;;;;;;9.57;7.60;;;15.40;99.90;;;;;;5114080;28;20492;-81
2022/10/19 05:04:00;;;;;;;8.63;7.57;;;15.20;99.90;;;;;;5101370;28;20131;-81
2022/10/19 05:06:25;;;;;;;9.73;7.35;;;15.20;99.90;;;;;;5093835;28;20488;-81
2022/10/19 05:08:51;;;;;;;14.05;8.23;;;15.30;99.90;;;;;;5093878;28;20066;-80
2022/10/19 05:11:18;;;;;;;10.80;8.23;;;15.40;99.90;;;;;;5093808;28;20051;-80
2022/10/19 05:13:44;;;;;;;11.02;8.18;;;15.20;99.90;;;;;;5093676;28;20032;-81
2022/10/19 05:16:12;;;;;;;14.27;8.00;;;15.30;99.90;;;;;;5093339;28;20073;-81
2022/10/19 05:18:38;;;;;;;10.00;8.05;;;15.20;99.90;;;;;;5093650;28;20040;-80
2022/10/19 05:21:06;;;;;;;12.18;8.48;;;15.10;99.90;;;;;;5093516;28;20028;-81
2022/10/19 05:23:32;;;;;;;11.65;8.13;;;15.10;99.90;;;;;;5093989;28;20024;-81
2022/10/19 05:26:10;;;;;;;11.32;8.52;;;15.00;99.90;;;;;;5093126;28;20104;-81
2022/10/19 05:28:36;;;;;;;13.60;8.05;;;15.00;99.90;;;;;;5093807;28;20030;-80
2022/10/19 05:31:09;;;;;;;10.50;8.05;;;14.80;99.90;;;;;;5097105;28;20544;-81
2022/10/19 05:33:36;;;;;;;10.18;7.85;;;14.80;99.90;;;;;;5114034;28;20476;-80
2022/10/19 05:36:21;;;;;;;11.90;8.02;;;14.80;99.90;;;;;;5113667;28;20024;-81
2022/10/19 05:38:48;;;;;;;12.38;8.02;;;14.90;99.90;;;;;;5113693;28;20024;-80
2022/10/19 05:41:15;;;;;;;13.15;8.98;;;14.70;99.90;;;;;;5113550;28;20046;-81
2022/10/19 05:43:41;;;;;;;15.48;8.70;;;14.60;99.90;;;;;;5113523;28;20026;-80
2022/10/19 05:46:10;;;;;;;11.45;8.93;;;14.60;99.90;;;;;;5113131;28;20023;-81
2022/10/19 05:48:37;;;;;;;14.13;8.30;;;14.70;99.90;;;;;;5113594;28;20027;-81
2022/10/19 05:51:04;;;;;;;11.68;8.60;;;14.70;99.90;;;;;;5113613;28;20054;-82
2022/10/19 05:53:30;;;;;;;15.40;8.75;;;14.70;99.90;;;;;;5113202;28;20028;-85
2022/10/19 05:55:56;;;;;;;11.77;8.07;;;14.90;99.90;;;;;;5113634;28;20019;-82
2022/10/19 05:58:22;;;;;;;10.63;7.75;;;15.10;99.90;;;;;;5112811;28;20499;-82
2022/10/19 06:00:55;;;;;;;13.90;8.07;;;15.10;99.90;;;;;;5113004;28;20028;-82
2022/10/19 06:03:21;;;;;;;13.75;8.23;;;15.20;99.90;;;;;;5105485;28;20031;-82
2022/10/19 06:05:48;;;;;;;11.80;7.60;;;15.20;99.90;;;;;;5092883;28;20028;-82
2022/10/19 06:08:18;;;;;;;10.18;7.68;;;15.40;99.90;;;;;;5093221;28;20405;-82
2022/10/19 06:10:44;;;;;;;12.00;8.32;;;15.30;99.90;;;;;;5084439;28;20044;-82
2022/10/19 06:13:10;;;;;;;17.23;8.60;;;15.40;99.90;;;;;;5092245;28;20457;-82
2022/10/19 06:15:38;;;;;;;14.77;7.63;;;15.40;99.90;;;;;;5092686;28;20131;-82
2022/10/19 06:18:05;;;;;;;13.77;8.32;;;15.40;99.90;;;;;;5093198;28;20020;-82
2022/10/19 06:20:36;;;;;;;11.73;8.18;;;15.40;99.90;;;;;;5092674;28;20099;-82
2022/10/19 06:23:04;;;;;;;10.05;8.13;;;15.50;99.90;;;;;;5092430;28;20035;-82
2022/10/19 06:25:30;;;;;;;12.40;7.80;;;15.50;99.90;;;;;;5092779;28;20387;-82
2022/10/19 06:27:56;;;;;;;10.48;7.57;;;15.40;99.90;;;;;;5092172;28;20032;-82
2022/10/19 06:30:22;;;;;;;15.18;8.30;;;15.40;99.90;;;;;;5092833;28;20090;-82
2022/10/19 06:32:48;;;;;;;11.95;7.25;;;15.70;99.90;;;;;;5111114;28;20031;-82
2022/10/19 06:35:14;;;;;;;12.18;6.75;;;15.80;99.90;;;;;;5112714;28;20055;-82
2022/10/19 06:37:40;;;;;;;10.25;7.22;;;15.70;99.90;;;;;;5112527;28;20100;-82
2022/10/19 06:40:06;;;;;;;11.43;7.90;;;15.70;99.90;;;;;;5113119;28;20472;-82
2022/10/19 06:42:32;;;;;;;12.82;8.20;;;15.50;99.90;;;;;;5112220;28;20036;-82
2022/10/19 06:44:58;;;;;;;14.15;8.15;;;15.50;99.90;;;;;;5112778;28;20068;-82
2022/10/19 06:47:29;;;;;;;12.40;7.60;;;15.30;99.90;;;;;;5112476;28;20088;-82
2022/10/19 06:49:55;;;;;;;12.52;8.27;;;15.40;99.90;;;;;;5112383;28;20106;-82
2022/10/19 06:52:21;;;;;;;10.80;8.20;;;15.90;99.90;;;;;;5112507;28;20387;-82
2022/10/19 06:54:47;;;;;;;14.43;8.68;;;15.60;99.90;;;;;;5112576;28;20036;-82
2022/10/19 06:57:12;;;;;;;13.88;8.32;;;15.50;99.90;;;;;;5112679;28;20035;-82
2022/10/19 06:59:38;;;;;;;13.18;7.65;;;16.00;99.90;;;;;;5112586;28;20024;-82
2022/10/19 07:02:04;;;;;;;9.82;7.57;;;16.30;99.90;;;;;;5112811;28;20093;-83
2022/10/19 07:04:30;;;;;;;10.20;7.85;;;16.60;99.90;;;;;;5094558;28;20545;-82
2022/10/19 07:06:55;;;;;;;11.07;7.85;;;16.60;99.90;;;;;;5091989;28;20028;-82
2022/10/19 07:09:21;;;;;;;10.52;7.80;;;16.70;99.90;;;;;;5073748;28;20472;-82
2022/10/19 07:11:47;;;;;;;12.25;7.63;;;16.50;99.90;;;;;;5094602;28;20101;-83
2022/10/19 07:14:13;;;;;;;11.32;7.63;;;17.10;99.90;;;;;;5096044;28;20093;-82
2022/10/19 07:16:38;;;;;;;13.52;7.80;;;16.50;99.90;;;;;;5095991;28;20032;-82
2022/10/19 07:19:04;;;;;;;11.98;7.63;;;16.80;99.90;;;;;;5095803;28;20024;-82
2022/10/19 07:21:30;;;;;;;14.77;7.95;;;17.00;99.90;;;;;;5096082;28;20086;-82
2022/10/19 07:23:55;;;;;;;12.32;7.60;;;16.70;99.90;;;;;;5078073;28;20097;-82
2022/10/19 07:26:25;;;;;;;14.73;7.82;;;17.00;99.90;;;;;;5096059;28;20043;-83
2022/10/19 07:28:51;;;;;;;10.45;7.50;;;17.10;99.90;;;;;;5095839;28;20031;-82
2022/10/19 07:31:20;;;;;;;14.00;7.30;;;17.20;99.90;;;;;;5101754;28;20018;-83
2022/10/19 07:33:57;;;;;;;11.35;7.10;;;17.30;99.90;;;;;;5115878;28;20043;-83
2022/10/19 07:36:24;;;;;;;9.75;7.40;;;17.40;99.90;;;;;;5115934;28;20048;-82
2022/10/19 07:38:50;;;;;;;14.75;7.65;;;17.60;99.90;;;;;;5116100;28;20023;-83
2022/10/19 07:41:19;;;;;;;14.15;7.68;;;18.50;99.90;;;;;;5115537;28;20090;-83
2022/10/19 07:43:46;;;;;;;14.27;7.43;;;18.30;99.90;;;;;;5115874;28;20032;-83
2022/10/19 07:46:21;;;;;;;11.60;7.15;;;19.70;99.90;;;;;;5116365;28;20118;-83
2022/10/19 07:48:47;;;;;;;13.02;6.90;;;19.10;99.90;;;;;;5115857;28;20031;-82
2022/10/19 07:51:15;;;;;;;10.98;7.60;;;23.00;99.90;;;;;;5115970;28;20027;-83
2022/10/19 07:53:41;;;;;;;12.40;7.28;;;23.80;99.90;;;;;;5115758;28;20046;-83
2022/10/19 07:56:12;;;;;;;10.57;6.80;;;25.70;99.90;;;;;;5115634;28;20031;-83
2022/10/19 07:58:38;;;;;;;9.40;6.60;;;28.00;99.90;;;;;;5115549;28;20039;-83
2022/10/19 08:01:15;;;;;;;12.18;6.20;;;30.30;99.90;;;;;;5115415;28;20031;-83
2022/10/19 08:03:41;;;;;;;14.60;6.85;;;29.40;99.90;;;;;;5104429;28;20077;-83
2022/10/19 08:06:10;;;;;;;11.52;6.18;;;30.70;99.90;;;;;;5095481;28;20024;-83
2022/10/19 08:08:36;;;;;;;12.65;7.25;;;32.00;99.90;;;;;;5094528;28;20059;-83
2022/10/19 08:11:10;;;;;;;11.20;6.57;;;31.30;99.90;;;;;;5094959;28;20773;-83
2022/10/19 08:13:36;;;;;;;12.35;6.50;;;32.00;99.90;;;;;;5095258;28;20507;-84
2022/10/19 08:16:03;;;;;;;11.98;6.70;;;31.00;99.90;;;;;;5076778;28;20035;-84
2022/10/19 08:18:29;;;;;;;12.10;6.40;;;33.00;99.90;;;;;;5094729;28;20043;-83
2022/10/19 08:20:55;;;;;;;12.57;6.32;;;33.80;99.90;;;;;;5094839;28;20028;-83
2022/10/19 08:23:22;;;;;;;11.18;6.22;;;33.70;99.90;;;;;;5093426;28;20365;-83
2022/10/19 08:25:48;;;;;;;6.72;5.60;;;30.50;99.90;;;;;;5094545;28;20024;-83
2022/10/19 08:28:13;;;;;;;7.57;5.53;;;31.60;99.90;;;;;;5094604;28;20020;-83
2022/10/19 08:30:39;;;;;;;11.93;6.05;;;32.90;99.90;;;;;;5095412;28;20027;-83
2022/10/19 08:33:07;;;;;;;10.52;5.78;;;34.30;99.90;;;;;;5096595;28;20024;-83
2022/10/19 08:35:33;;;;;;;7.40;6.05;;;32.50;99.90;;;;;;5114955;28;20023;-83
2022/10/19 08:37:58;;;;;;;10.48;5.90;;;33.30;99.90;;;;;;5114855;28;20027;-84
2022/10/19 08:40:29;;;;;;;11.55;6.05;;;34.20;99.90;;;;;;5114753;28;20103;-83
2022/10/19 08:42:57;;;;;;;10.60;4.95;;;33.60;99.90;;;;;;5096611;28;20027;-83
2022/10/19 08:45:23;;;;;;;10.38;5.63;;;35.70;99.90;;;;;;5114701;28;20024;-84
2022/10/19 08:48:02;;;;;;;9.88;4.93;;;34.90;99.90;;;;;;5114474;28;20023;-83
2022/10/19 08:50:37;;;;;;;11.20;5.45;;;35.30;99.90;;;;;;5114590;28;20020;-83
2022/10/19 08:53:32;;;;;;;12.43;5.05;;;35.90;99.90;;;;;;5114155;28;20528;-84
2022/10/19 08:56:27;;;;;;;10.73;4.40;;;34.20;99.90;;;;;;5105638;28;20572;-83
2022/10/19 08:59:05;;;;;;;8.65;4.53;;;34.40;99.90;;;;;;5114337;28;20020;-84
2022/10/19 09:01:52;;;;;;;10.77;5.00;;;35.20;99.90;;;;;;5114802;28;20541;-83
2022/10/19 09:04:37;;;;;;;9.98;5.00;;;36.10;99.90;;;;;;5098124;28;20032;-83
2022/10/19 09:07:08;;;;;;;15.80;4.90;;;35.00;99.90;;;;;;5093395;28;20024;-83
2022/10/19 09:09:41;;;;;;;8.75;4.40;;;33.90;99.90;;;;;;5093911;28;20038;-83
2022/10/19 09:12:10;;;;;;;9.13;4.78;;;34.50;99.90;;;;;;5093788;28;20086;-83
2022/10/19 09:14:51;;;;;;;12.07;4.55;;;35.50;99.90;;;;;;5093511;28;20072;-83
2022/10/19 09:17:17;;;;;;;9.57;4.72;;;33.40;99.90;;;;;;5093617;28;20032;-84
2022/10/19 09:19:42;;;;;;;10.98;4.85;;;34.80;99.90;;;;;;5094006;28;20020;-83
2022/10/19 09:22:31;;;;;;;12.68;6.28;;;33.50;99.90;;;;;;5093319;28;20050;-83
2022/10/19 09:25:12;;;;;;;9.00;4.28;;;34.30;99.90;;;;;;5093523;28;20024;-84
2022/10/19 09:27:39;;;;;;;8.68;4.63;;;32.70;99.90;;;;;;5093450;28;20157;-83
2022/10/19 09:30:26;;;;;;;12.57;4.47;;;33.10;99.90;;;;;;5093967;28;20487;-83
2022/10/19 09:32:59;;;;;;;8.90;4.63;;;35.20;99.90;;;;;;5112848;28;20019;-83
2022/10/19 09:35:31;;;;;;;10.55;4.20;;;35.00;99.90;;;;;;5113275;28;20028;-83
2022/10/19 09:37:57;;;;;;;8.90;3.88;;;35.40;99.90;;;;;;5095320;28;20399;-84
2022/10/19 09:40:28;;;;;;;10.15;4.30;;;33.30;99.90;;;;;;5113552;28;20034;-83
2022/10/19 09:42:58;;;;;;;8.75;4.40;;;34.40;99.90;;;;;;5113550;28;20023;-83
2022/10/19 09:45:42;;;;;;;7.45;3.90;;;32.90;99.90;;;;;;5113943;28;20383;-83
2022/10/19 09:48:36;;;;;;;10.40;4.00;;;35.20;99.90;;;;;;5113210;28;20024;-83
2022/10/19 09:51:10;;;;;;;8.57;4.18;;;35.90;99.90;;;;;;5113472;28;20475;-83
2022/10/19 09:53:36;;;;;;;9.80;4.10;;;37.80;99.90;;;;;;5113707;28;20079;-83
2022/10/19 09:56:07;;;;;;;9.68;3.97;;;38.80;99.90;;;;;;5113437;28;20056;-84
2022/10/19 09:58:34;;;;;;;9.93;4.20;;;36.40;99.90;;;;;;5113208;28;20028;-84
2022/10/19 10:01:01;;;;;;;11.02;4.10;;;36.20;99.90;;;;;;5113431;28;20428;-83
2022/10/19 10:03:29;;;;;;;8.77;3.95;;;37.90;99.90;;;;;;5104268;28;20024;-84
2022/10/19 10:06:05;;;;;;;12.73;3.90;;;38.70;99.90;;;;;;5092463;28;20047;-83
2022/10/19 10:08:35;;;;;;;9.18;3.95;;;38.90;99.90;;;;;;5093124;28;20080;-83
2022/10/19 10:11:10;;;;;;;10.10;4.68;;;39.50;99.90;;;;;;5092501;28;20044;-83
2022/10/19 10:13:47;;;;;;;9.02;3.90;;;36.50;99.90;;;;;;5092602;28;20040;-83
2022/10/19 10:16:15;;;;;;;12.57;4.32;;;37.80;99.90;;;;;;5092794;28;20028;-84
2022/10/19 10:18:54;;;;;;;9.70;4.18;;;41.80;99.90;;;;;;5092262;28;20027;-84
2022/10/19 10:21:33;;;;;;;7.95;4.15;;;39.80;99.90;;;;;;5092690;28;20508;-83
2022/10/19 10:24:04;;;;;;;11.07;4.10;;;42.90;99.90;;;;;;5092497;28;20513;-84
2022/10/19 10:26:32;;;;;;;9.30;4.40;;;40.10;99.90;;;;;;5092670;28;20020;-83
2022/10/19 10:28:57;;;;;;;12.85;4.72;;;42.60;99.90;;;;;;5092411;28;20020;-84
2022/10/19 10:31:28;;;;;;;10.55;4.65;;;40.80;99.90;;;;;;5099355;28;20050;-84
2022/10/19 10:34:01;;;;;;;8.48;3.97;;;40.80;99.90;;;;;;5112468;28;20491;-84
2022/10/19 10:36:29;;;;;;;9.00;4.60;;;39.80;99.90;;;;;;5112985;28;20034;-84
2022/10/19 10:39:04;;;;;;;7.55;4.07;;;38.40;99.90;;;;;;5112576;28;20035;-84
2022/10/19 10:41:41;;;;;;;11.20;4.35;;;37.20;99.90;;;;;;5112783;28;20435;-84
2022/10/19 10:44:18;;;;;;;7.35;4.20;;;37.70;99.90;;;;;;5112599;28;20056;-84
2022/10/19 10:46:56;;;;;;;10.93;4.25;;;39.80;99.90;;;;;;5112617;28;20376;-83
2022/10/19 10:49:34;;;;;;;8.50;4.03;;;37.80;99.90;;;;;;5112444;28;20498;-84
2022/10/19 10:52:05;;;;;;;8.77;3.85;;;34.80;99.90;;;;;;5112538;28;20472;-84
2022/10/19 10:54:34;;;;;;;10.07;4.57;;;36.20;99.90;;;;;;5112487;28;20032;-84
2022/10/19 10:57:18;;;;;;;11.60;4.38;;;34.80;99.90;;;;;;5112292;28;20024;-84
2022/10/19 11:00:06;;;;;;;9.40;4.45;;;32.80;99.90;;;;;;5112394;28;20106;-84
2022/10/19 11:02:40;;;;;;;8.10;4.20;;;32.90;99.90;;;;;;5110643;28;20020;-84
2022/10/19 11:05:21;;;;;;;10.13;4.03;;;32.50;99.90;;;;;;5091994;28;20024;-84
2022/10/19 11:07:52;;;;;;;7.45;4.35;;;33.00;99.90;;;;;;5092188;28;20040;-84
2022/10/19 11:10:25;;;;;;;11.85;4.45;;;31.30;99.90;;;;;;5092256;28;20429;-84
2022/10/19 11:13:05;;;;;;;9.55;4.68;;;29.70;99.90;;;;;;5092012;28;20054;-83
2022/10/19 11:15:43;;;;;;;9.48;4.38;;;30.40;99.90;;;;;;5092146;28;20071;-83
2022/10/19 11:18:17;;;;;;;10.85;4.43;;;30.50;99.90;;;;;;5091649;28;20106;-84
2022/10/19 11:21:00;;;;;;;12.02;5.07;;;31.30;99.90;;;;;;5091811;28;20024;-84
2022/10/19 11:23:54;;;;;;;9.40;4.70;;;30.30;99.90;;;;;;5091953;28;20039;-84
2022/10/19 11:26:56;;;;;;;7.72;4.32;;;31.30;99.90;;;;;;5091918;28;20017;-83
2022/10/19 11:29:44;;;;;;;10.88;4.38;;;34.50;99.90;;;;;;5092018;28;20024;-83
2022/10/19 11:32:26;;;;;;;11.18;4.82;;;32.90;99.90;;;;;;5104901;28;20027;-84
2022/10/19 11:34:55;;;;;;;11.35;4.95;;;34.00;99.90;;;;;;5112286;28;20036;-84
2022/10/19 11:37:48;;;;;;;7.63;4.25;;;37.10;99.90;;;;;;5112098;28;20395;-84
2022/10/19 11:40:16;;;;;;;9.05;4.50;;;35.00;99.90;;;;;;5111950;28;20376;-83
2022/10/19 11:43:23;;;;;;;7.68;4.55;;;32.50;99.90;;;;;;5112216;28;20043;-83
2022/10/19 11:46:12;;;;;;;8.55;4.10;;;33.70;99.90;;;;;;5009152;28;20045;-83
2022/10/19 11:48:47;;;;;;;9.43;4.50;;;33.60;99.90;;;;;;5009474;28;20041;-83
2022/10/19 11:51:28;;;;;;;10.38;4.90;;;33.10;99.90;;;;;;5009572;28;20087;-91
2022/10/19 11:54:03;;;;;;;9.35;4.22;;;34.60;99.90;;;;;;5008565;28;20042;-83
2022/10/19 11:56:47;;;;;;;7.07;4.30;;;35.30;99.90;;;;;;5009195;28;20042;-83
2022/10/19 11:59:33;;;;;;;9.40;4.25;;;35.80;99.90;;;;;;5011555;28;20096;-83
2022/10/19 12:02:10;;;;;;;9.82;4.57;;;38.80;99.90;;;;;;5012145;28;20042;-83
2022/10/19 12:05:07;;;;;;;9.63;4.47;;;38.40;99.90;;;;;;5012316;28;20030;-83
2022/10/19 12:07:50;;;;;;;8.07;4.00;;;37.50;99.90;;;;;;5012807;28;20038;-83
2022/10/19 12:10:32;;;;;;;9.27;4.47;;;34.20;99.90;;;;;;5012338;28;20037;-83
2022/10/19 12:13:03;;;;;;;13.85;4.22;;;35.40;99.90;;;;;;5011974;28;20033;-83
2022/10/19 12:15:34;;;;;;;9.98;4.50;;;33.30;99.90;;;;;;5012489;28;20042;-83
2022/10/19 12:18:20;;;;;;;9.88;4.50;;;33.70;99.90;;;;;;5012233;28;20099;-86
2022/10/19 12:20:51;;;;;;;10.15;4.38;;;36.50;99.90;;;;;;5041842;28;20043;-83
2022/10/19 12:23:29;;;;;;;8.70;4.07;;;36.30;99.90;;;;;;5109277;28;20035;-83
2022/10/19 12:25:57;;;;;;;8.73;4.28;;;36.20;99.90;;;;;;5094533;28;20020;-83
2022/10/19 12:28:35;;;;;;;8.68;4.10;;;38.30;99.90;;;;;;5107525;28;20028;-83
2022/10/19 12:31:02;;;;;;;10.13;4.13;;;36.90;99.90;;;;;;5099215;28;20480;-83
2022/10/19 12:33:50;;;;;;;8.43;4.00;;;37.00;99.90;;;;;;5111727;28;20028;-82
2022/10/19 12:36:44;;;;;;;8.25;3.90;;;36.70;99.90;;;;;;5107185;28;20507;-83
2022/10/19 12:39:42;;;;;;;10.68;4.57;;;35.40;99.90;;;;;;5114380;28;20038;-83
2022/10/19 12:42:26;;;;;;;8.02;4.05;;;35.80;99.90;;;;;;5114425;28;20028;-83
2022/10/19 12:45:23;;;;;;;10.10;4.85;;;34.90;99.90;;;;;;5114756;28;20502;-83
2022/10/19 12:48:24;;;;;;;9.93;4.38;;;33.20;99.90;;;;;;5011613;28;20046;-83
2022/10/19 12:50:52;;;;;;;11.02;4.53;;;32.40;99.90;;;;;;4899758;29;20496;-83
2022/10/19 12:53:34;;;;;;;10.57;4.43;;;32.60;99.90;;;;;;4915039;29;20119;-83
2022/10/19 12:56:05;;;;;;;10.13;4.68;;;31.10;99.90;;;;;;4915655;29;20032;-83
2022/10/19 12:58:42;;;;;;;11.60;5.13;;;31.10;99.90;;;;;;4914747;29;20541;-83
2022/10/19 13:01:19;;;;;;;10.55;4.88;;;30.60;99.90;;;;;;4915385;29;20032;-83
2022/10/19 13:03:46;;;;;;;9.93;4.60;;;30.30;99.90;;;;;;4913547;29;20043;-83